createdAt,value
2023-04-13T00:01:12.768Z,5.40
2023-04-13T00:03:40.122Z,5.40
2023-04-13T00:06:11.267Z,5.30
2023-04-13T00:08:38.847Z,5.20
2023-04-13T00:11:08.283Z,5.20
2023-04-13T00:13:40.962Z,5.20
2023-04-13T00:16:10.499Z,5.10
2023-04-13T00:18:37.548Z,5.10
2023-04-13T00:21:05.985Z,5.10
2023-04-13T00:23:33.151Z,5.20
2023-04-13T00:26:01.971Z,5.20
2023-04-13T00:28:30.146Z,5.20
2023-04-13T00:30:58.050Z,5.20
2023-04-13T00:33:25.029Z,5.30
2023-04-13T00:35:52.476Z,5.30
2023-04-13T00:38:19.454Z,5.30
2023-04-13T00:40:46.773Z,5.20
2023-04-13T00:43:13.809Z,5.20
2023-04-13T00:45:41.442Z,5.20
2023-04-13T00:48:10.968Z,5.20
2023-04-13T00:50:39.848Z,5.20
2023-04-13T00:53:10.672Z,5.20
2023-04-13T00:55:39.478Z,5.10
2023-04-13T00:58:06.641Z,5.10
2023-04-13T01:00:34.013Z,5.00
2023-04-13T01:03:01.909Z,4.90
2023-04-13T01:05:51.944Z,4.80
2023-04-13T01:08:45.602Z,4.70
2023-04-13T01:11:33.021Z,4.50
2023-04-13T01:14:14.805Z,4.50
2023-04-13T01:16:54.231Z,4.30
2023-04-13T01:19:35.053Z,4.30
2023-04-13T01:22:04.944Z,4.30
2023-04-13T01:25:11.453Z,4.20
2023-04-13T01:27:47.161Z,4.20
2023-04-13T01:30:16.883Z,4.10
2023-04-13T01:32:45.810Z,4.10
2023-04-13T01:35:13.522Z,4.00
2023-04-13T01:37:44.870Z,4.00
2023-04-13T01:40:14.980Z,4.00
2023-04-13T01:42:43.476Z,3.90
2023-04-13T01:45:18.061Z,3.90
2023-04-13T01:48:09.416Z,3.90
2023-04-13T01:50:40.633Z,3.90
2023-04-13T01:53:15.392Z,3.90
2023-04-13T01:55:44.495Z,3.90
2023-04-13T01:58:14.209Z,3.90
2023-04-13T02:00:42.232Z,4.00
2023-04-13T02:03:10.582Z,4.00
2023-04-13T02:05:38.032Z,4.00
2023-04-13T02:08:06.508Z,4.10
2023-04-13T02:10:35.196Z,4.10
2023-04-13T02:13:04.160Z,4.10
2023-04-13T02:15:35.102Z,4.10
2023-04-13T02:18:02.789Z,4.20
2023-04-13T02:20:30.752Z,4.20
2023-04-13T02:22:57.997Z,4.20
2023-04-13T02:25:26.021Z,4.10
2023-04-13T02:27:53.909Z,4.10
2023-04-13T02:30:21.089Z,4.00
2023-04-13T02:32:50.206Z,4.00
2023-04-13T02:35:17.488Z,4.00
2023-04-13T02:37:45.730Z,4.00
2023-04-13T02:40:13.117Z,4.00
2023-04-13T02:42:40.643Z,4.00
2023-04-13T02:45:12.104Z,4.10
2023-04-13T02:47:40.355Z,4.10
2023-04-13T02:50:08.106Z,4.20
2023-04-13T02:52:35.439Z,4.20
2023-04-13T02:55:02.490Z,4.30
2023-04-13T02:57:29.774Z,4.20
2023-04-13T02:59:56.726Z,4.20
2023-04-13T03:02:26.655Z,4.20
2023-04-13T03:04:54.981Z,4.10
2023-04-13T03:07:22.647Z,4.10
2023-04-13T03:09:49.640Z,4.00
2023-04-13T03:12:17.205Z,3.90
2023-04-13T03:14:44.340Z,3.90
2023-04-13T03:17:12.634Z,3.90
2023-04-13T03:19:39.867Z,3.90
2023-04-13T03:22:08.269Z,3.90
2023-04-13T03:24:35.949Z,4.00
2023-04-13T03:27:03.847Z,3.90
2023-04-13T03:29:30.975Z,4.00
2023-04-13T03:31:59.114Z,3.90
2023-04-13T03:34:26.228Z,3.90
2023-04-13T03:36:53.561Z,4.00
2023-04-13T03:39:20.658Z,3.90
2023-04-13T03:41:48.268Z,4.10
2023-04-13T03:44:15.320Z,4.00
2023-04-13T03:46:42.905Z,4.20
2023-04-13T03:49:11.135Z,4.20
2023-04-13T03:51:38.473Z,4.20
2023-04-13T03:54:05.524Z,4.30
2023-04-13T03:56:33.247Z,4.30
2023-04-13T03:59:00.545Z,4.30
2023-04-13T04:01:28.094Z,4.20
2023-04-13T04:03:57.718Z,4.20
2023-04-13T04:06:27.195Z,4.10
2023-04-13T04:08:54.263Z,4.10
2023-04-13T04:11:22.353Z,4.00
2023-04-13T04:13:49.300Z,3.90
2023-04-13T04:16:17.309Z,3.80
2023-04-13T04:18:44.590Z,3.70
2023-04-13T04:21:13.328Z,3.60
2023-04-13T04:23:40.475Z,3.50
2023-04-13T04:26:08.080Z,3.40
2023-04-13T04:28:40.938Z,3.40
2023-04-13T04:31:11.957Z,3.30
2023-04-13T04:33:39.046Z,3.20
2023-04-13T04:36:10.477Z,3.30
2023-04-13T04:38:37.993Z,3.30
2023-04-13T04:41:05.670Z,3.30
2023-04-13T04:43:32.675Z,3.50
2023-04-13T04:46:03.179Z,3.50
2023-04-13T04:48:31.707Z,3.50
2023-04-13T04:51:02.100Z,3.60
2023-04-13T04:53:29.247Z,3.60
2023-04-13T04:55:56.817Z,3.50
2023-04-13T04:58:23.897Z,3.50
2023-04-13T05:00:53.224Z,3.40
2023-04-13T05:03:21.134Z,3.40
2023-04-13T05:05:48.742Z,3.40
2023-04-13T05:08:15.841Z,3.40
2023-04-13T05:10:46.873Z,3.40
2023-04-13T05:13:14.037Z,3.60
2023-04-13T05:15:41.456Z,3.90
2023-04-13T05:18:08.781Z,4.30
2023-04-13T05:20:36.404Z,4.30
2023-04-13T05:23:03.492Z,4.70
2023-04-13T05:25:31.152Z,4.70
2023-04-13T05:27:58.440Z,5.00
2023-04-13T05:30:26.035Z,5.20
2023-04-13T05:32:53.132Z,5.40
2023-04-13T05:35:21.066Z,5.60
2023-04-13T05:37:48.176Z,5.90
2023-04-13T05:40:15.520Z,6.20
2023-04-13T05:42:43.618Z,6.40
2023-04-13T05:45:12.794Z,7.10
2023-04-13T05:47:40.539Z,7.10
2023-04-13T05:50:09.505Z,7.60
2023-04-13T05:52:36.500Z,8.20
2023-04-13T05:55:04.231Z,8.60
2023-04-13T05:57:31.256Z,9.10
2023-04-13T05:59:59.988Z,9.60
2023-04-13T06:02:27.161Z,10.10
2023-04-13T06:04:55.189Z,10.10
2023-04-13T06:07:23.354Z,10.20
2023-04-13T06:09:51.862Z,10.40
2023-04-13T06:12:19.482Z,10.50
2023-04-13T06:14:47.716Z,10.60
2023-04-13T06:17:14.778Z,10.50
2023-04-13T06:19:42.090Z,10.30
2023-04-13T06:22:09.109Z,10.20
2023-04-13T06:24:37.463Z,10.20
2023-04-13T06:27:04.547Z,10.40
2023-04-13T06:29:31.996Z,10.50
2023-04-13T06:31:59.017Z,10.90
2023-04-13T06:34:27.119Z,11.00
2023-04-13T06:36:54.351Z,13.10
2023-04-13T06:39:21.894Z,13.20
2023-04-13T06:41:49.107Z,15.70
2023-04-13T06:44:16.601Z,15.70
2023-04-13T06:46:43.704Z,16.70
2023-04-13T06:49:12.009Z,16.60
2023-04-13T06:51:39.109Z,17.00
2023-04-13T06:54:06.989Z,17.50
2023-04-13T06:56:34.104Z,17.50
2023-04-13T06:59:03.006Z,17.50
2023-04-13T07:01:30.541Z,18.00
2023-04-13T07:03:59.089Z,18.10
2023-04-13T07:06:26.616Z,18.20
2023-04-13T07:08:54.048Z,18.50
2023-04-13T07:11:21.322Z,19.20
2023-04-13T07:13:48.630Z,19.30
2023-04-13T07:16:15.902Z,19.50
2023-04-13T07:18:43.443Z,19.90
2023-04-13T07:21:10.544Z,20.30
2023-04-13T07:23:37.974Z,20.50
2023-04-13T07:26:05.578Z,20.90
2023-04-13T07:28:32.805Z,21.40
2023-04-13T07:30:59.896Z,21.60
2023-04-13T07:33:27.288Z,21.70
2023-04-13T07:35:55.586Z,21.80
2023-04-13T07:38:22.989Z,22.20
2023-04-13T07:40:49.975Z,22.50
2023-04-13T07:43:19.296Z,22.90
2023-04-13T07:45:47.471Z,23.10
2023-04-13T07:48:15.137Z,23.20
2023-04-13T07:50:43.139Z,23.30
2023-04-13T07:53:10.549Z,23.60
2023-04-13T07:55:37.954Z,23.60
2023-04-13T07:58:05.324Z,23.70
2023-04-13T08:00:32.371Z,23.80
2023-04-13T08:02:59.870Z,23.80
2023-04-13T08:05:27.019Z,24.10
2023-04-13T08:07:54.612Z,23.70
2023-04-13T08:10:22.169Z,23.40
2023-04-13T08:12:49.511Z,23.70
2023-04-13T08:15:16.666Z,24.40
2023-04-13T08:17:45.087Z,25.10
2023-04-13T08:20:19.121Z,24.60
2023-04-13T08:22:46.833Z,24.60
2023-04-13T08:25:13.929Z,24.70
2023-04-13T08:27:42.077Z,24.90
2023-04-13T08:30:11.673Z,24.40
2023-04-13T08:32:41.650Z,23.60
2023-04-13T08:35:14.501Z,22.70
2023-04-13T08:37:42.633Z,22.50
2023-04-13T08:40:12.221Z,22.40
2023-04-13T08:42:39.963Z,22.10
2023-04-13T08:45:08.606Z,21.90
2023-04-13T08:47:36.972Z,22.20
2023-04-13T08:50:04.309Z,21.10
2023-04-13T08:52:31.642Z,21.10
2023-04-13T08:55:00.912Z,20.30
2023-04-13T08:57:30.945Z,19.80
2023-04-13T08:59:59.482Z,20.50
2023-04-13T09:02:34.473Z,21.10
2023-04-13T09:05:09.715Z,21.60
2023-04-13T09:07:38.840Z,22.10
2023-04-13T09:10:06.584Z,23.30
2023-04-13T09:12:35.182Z,23.60
2023-04-13T09:15:05.495Z,24.10
2023-04-13T09:17:33.997Z,24.80
2023-04-13T09:20:24.358Z,23.80
2023-04-13T09:22:52.566Z,24.80
2023-04-13T09:25:21.547Z,25.50
2023-04-13T09:27:49.702Z,26.10
2023-04-13T09:30:20.453Z,26.10
2023-04-13T09:32:48.110Z,25.80
2023-04-13T09:35:15.562Z,25.90
2023-04-13T09:37:45.085Z,26.70
2023-04-13T09:40:14.703Z,27.40
2023-04-13T09:42:54.521Z,27.60
2023-04-13T09:45:22.286Z,27.80
2023-04-13T09:47:50.538Z,27.00
2023-04-13T09:50:28.475Z,25.50
2023-04-13T09:53:07.013Z,24.10
2023-04-13T09:55:37.646Z,23.10
2023-04-13T09:58:16.966Z,21.70
2023-04-13T10:00:46.780Z,20.60
2023-04-13T10:03:16.311Z,19.80
2023-04-13T10:08:27.356Z,18.40
2023-04-13T10:11:04.273Z,18.00
2023-04-13T10:13:41.574Z,17.90
2023-04-13T10:16:09.912Z,17.70
2023-04-13T10:19:02.046Z,17.50
2023-04-13T10:21:35.483Z,17.50
2023-04-13T10:24:11.292Z,17.60
2023-04-13T10:29:09.436Z,17.20
2023-04-13T10:31:47.347Z,17.20
2023-04-13T10:34:25.927Z,17.20
2023-04-13T10:36:56.240Z,18.00
2023-04-13T10:39:25.875Z,18.00
2023-04-13T10:42:04.079Z,18.30
2023-04-13T10:44:48.351Z,18.30
2023-04-13T10:47:21.233Z,18.10
2023-04-13T10:50:35.122Z,18.10
2023-04-13T10:53:07.637Z,17.70
2023-04-13T10:55:35.866Z,17.30
2023-04-13T10:58:15.072Z,16.90
2023-04-13T11:00:46.747Z,16.50
2023-04-13T11:03:16.668Z,16.40
2023-04-13T11:05:46.160Z,16.70
2023-04-13T11:08:22.842Z,16.90
2023-04-13T11:10:54.647Z,16.90
2023-04-13T11:13:25.127Z,17.00
2023-04-13T11:16:01.515Z,16.80
2023-04-13T11:18:28.611Z,16.60
2023-04-13T11:20:56.644Z,16.50
2023-04-13T11:23:24.652Z,16.50
2023-04-13T11:25:58.594Z,16.30
2023-04-13T11:28:36.001Z,16.30
2023-04-13T11:31:04.619Z,16.20
2023-04-13T11:33:34.209Z,16.40
2023-04-13T11:36:02.288Z,16.80
2023-04-13T11:38:29.745Z,17.20
2023-04-13T11:41:15.573Z,17.20
2023-04-13T11:43:46.402Z,17.10
2023-04-13T11:46:16.300Z,16.80
2023-04-13T11:48:44.024Z,16.40
2023-04-13T11:51:12.384Z,16.00
2023-04-13T11:53:40.924Z,15.80
2023-04-13T11:56:08.811Z,15.90
2023-04-13T11:58:37.562Z,16.10
2023-04-13T12:01:14.438Z,16.40
2023-04-13T12:04:01.458Z,16.60
2023-04-13T12:06:35.305Z,16.80
2023-04-13T12:09:10.841Z,16.80
2023-04-13T12:11:42.832Z,16.90
2023-04-13T12:14:49.873Z,17.00
2023-04-13T12:17:35.431Z,16.80
2023-04-13T12:20:01.493Z,16.80
2023-04-13T12:22:54.881Z,16.80
2023-04-13T12:25:25.098Z,16.80
2023-04-13T12:27:53.997Z,16.60
2023-04-13T12:30:22.325Z,16.40
2023-04-13T12:32:55.267Z,16.20
2023-04-13T12:35:22.574Z,16.00
2023-04-13T12:37:50.573Z,16.00
2023-04-13T12:40:18.623Z,16.10
2023-04-13T12:42:47.184Z,16.10
2023-04-13T12:45:17.022Z,16.00
2023-04-13T12:47:44.525Z,16.00
2023-04-13T12:50:12.427Z,16.10
2023-04-13T12:52:43.054Z,15.90
2023-04-13T12:55:10.727Z,16.00
2023-04-13T12:57:39.848Z,16.10
2023-04-13T13:00:11.113Z,16.20
2023-04-13T13:02:38.927Z,16.30
2023-04-13T13:05:07.958Z,16.40
2023-04-13T13:07:35.612Z,16.50
2023-04-13T13:10:05.011Z,16.70
2023-04-13T13:12:37.307Z,16.70
2023-04-13T13:15:10.446Z,16.70
2023-04-13T13:17:41.714Z,16.50
2023-04-13T13:20:10.503Z,16.60
2023-04-13T13:22:38.224Z,16.60
2023-04-13T13:25:07.182Z,16.60
2023-04-13T13:30:09.854Z,16.80
2023-04-13T13:32:37.460Z,16.70
2023-04-13T13:35:06.128Z,16.60
2023-04-13T13:37:33.440Z,16.60
2023-04-13T13:40:07.830Z,16.60
2023-04-13T13:42:50.049Z,16.70
2023-04-13T13:45:18.634Z,16.80
2023-04-13T13:47:54.093Z,16.90
2023-04-13T13:50:21.955Z,16.90
2023-04-13T13:53:02.615Z,16.90
2023-04-13T13:55:31.240Z,16.70
2023-04-13T13:57:58.945Z,16.50
2023-04-13T14:00:27.384Z,16.30
2023-04-13T14:02:55.478Z,16.20
2023-04-13T14:05:22.756Z,16.00
2023-04-13T14:07:51.006Z,15.90
2023-04-13T14:10:18.042Z,15.90
2023-04-13T14:12:49.560Z,15.90
2023-04-13T14:15:25.214Z,15.80
2023-04-13T14:18:06.420Z,15.80
2023-04-13T14:20:40.626Z,15.80
2023-04-13T14:23:09.495Z,15.70
2023-04-13T14:25:37.918Z,15.70
2023-04-13T14:28:05.356Z,15.60
2023-04-13T14:30:32.459Z,15.40
2023-04-13T14:33:01.054Z,15.40
2023-04-13T14:35:28.406Z,15.40
2023-04-13T14:37:56.662Z,15.50
2023-04-13T14:40:24.393Z,15.90
2023-04-13T14:42:52.936Z,16.60
2023-04-13T14:45:21.212Z,17.00
2023-04-13T14:47:49.553Z,17.10
2023-04-13T14:50:17.216Z,16.90
2023-04-13T14:52:49.464Z,16.60
2023-04-13T14:55:17.788Z,16.30
2023-04-13T14:57:46.129Z,16.10
2023-04-13T15:00:22.226Z,15.80
2023-04-13T15:02:53.028Z,15.70
2023-04-13T15:05:21.051Z,15.60
2023-04-13T15:07:48.844Z,15.50
2023-04-13T15:10:16.542Z,15.40
2023-04-13T15:12:44.182Z,15.20
2023-04-13T15:15:11.552Z,15.10
2023-04-13T15:17:39.174Z,14.90
2023-04-13T15:20:07.867Z,14.70
2023-04-13T15:22:36.451Z,14.60
2023-04-13T15:25:04.291Z,14.40
2023-04-13T15:27:31.864Z,14.20
2023-04-13T15:30:00.309Z,14.30
2023-04-13T15:32:28.886Z,14.20
2023-04-13T15:34:57.459Z,14.30
2023-04-13T15:37:25.137Z,14.30
2023-04-13T15:39:52.295Z,14.30
2023-04-13T15:42:21.369Z,14.30
2023-04-13T15:44:48.680Z,14.30
2023-04-13T15:47:16.024Z,14.30
2023-04-13T15:49:43.162Z,14.30
2023-04-13T15:52:11.357Z,14.30
2023-04-13T15:54:38.661Z,14.30
2023-04-13T15:57:06.943Z,14.30
2023-04-13T15:59:34.876Z,14.20
2023-04-13T16:02:02.673Z,14.20
2023-04-13T16:04:30.191Z,14.10
2023-04-13T16:07:11.829Z,14.00
2023-04-13T16:09:39.518Z,14.00
2023-04-13T16:12:10.848Z,13.90
2023-04-13T16:14:45.380Z,13.80
2023-04-13T16:17:15.010Z,13.80
2023-04-13T16:19:46.683Z,13.80
2023-04-13T16:22:14.449Z,13.80
2023-04-13T16:24:42.040Z,13.70
2023-04-13T16:27:10.273Z,13.70
2023-04-13T16:29:37.513Z,13.60
2023-04-13T16:32:05.115Z,13.50
2023-04-13T16:34:32.598Z,13.40
2023-04-13T16:37:00.870Z,13.30
2023-04-13T16:39:28.017Z,13.20
2023-04-13T16:41:55.559Z,13.20
2023-04-13T16:44:22.703Z,13.10
2023-04-13T16:46:50.514Z,13.00
2023-04-13T16:49:17.525Z,12.90
2023-04-13T16:51:45.754Z,12.70
2023-04-13T16:54:14.047Z,12.60
2023-04-13T16:56:42.577Z,12.60
2023-04-13T16:59:09.779Z,12.50
2023-04-13T17:01:39.722Z,12.30
2023-04-13T17:04:07.217Z,12.20
2023-04-13T17:06:38.630Z,12.10
2023-04-13T17:09:06.375Z,12.10
2023-04-13T17:11:34.929Z,12.00
2023-04-13T17:14:02.252Z,11.90
2023-04-13T17:16:30.649Z,11.80
2023-04-13T17:18:58.701Z,11.70
2023-04-13T17:21:27.331Z,11.60
2023-04-13T17:23:54.750Z,11.60
2023-04-13T17:26:22.725Z,11.50
2023-04-13T17:28:49.906Z,11.40
2023-04-13T17:31:17.560Z,11.30
2023-04-13T17:33:45.237Z,11.20
2023-04-13T17:36:12.847Z,11.20
2023-04-13T17:38:40.088Z,11.10
2023-04-13T17:41:10.851Z,11.10
2023-04-13T17:43:41.154Z,10.90
2023-04-13T17:46:09.186Z,10.80
2023-04-13T17:48:36.468Z,10.70
2023-04-13T17:51:10.547Z,10.70
2023-04-13T17:53:38.296Z,10.70
2023-04-13T17:56:06.007Z,10.60
2023-04-13T17:58:35.142Z,10.50
2023-04-13T18:01:10.536Z,10.40
2023-04-13T18:03:37.962Z,10.40
2023-04-13T18:06:06.502Z,10.40
2023-04-13T18:08:33.575Z,10.30
2023-04-13T18:11:01.127Z,10.30
2023-04-13T18:13:29.189Z,10.20
2023-04-13T18:15:56.831Z,10.20
2023-04-13T18:18:24.511Z,10.20
2023-04-13T18:20:53.949Z,10.20
2023-04-13T18:23:21.618Z,10.20
2023-04-13T18:25:50.594Z,10.10
2023-04-13T18:28:18.338Z,10.10
2023-04-13T18:30:46.245Z,10.10
2023-04-13T18:33:13.455Z,10.10
2023-04-13T18:35:50.380Z,10.00
2023-04-13T18:38:17.731Z,10.10
2023-04-13T18:40:45.854Z,10.00
2023-04-13T18:43:13.112Z,10.10
2023-04-13T18:45:40.637Z,10.10
2023-04-13T18:48:09.751Z,10.00
2023-04-13T18:50:38.642Z,10.00
2023-04-13T18:53:06.142Z,10.00
2023-04-13T18:55:33.201Z,10.00
2023-04-13T18:58:00.884Z,10.00
2023-04-13T19:00:28.071Z,9.90
2023-04-13T19:02:57.567Z,9.90
2023-04-13T19:05:26.064Z,9.80
2023-04-13T19:07:59.018Z,9.80
2023-04-13T19:10:27.985Z,9.70
2023-04-13T19:12:56.709Z,9.70
2023-04-13T19:15:25.104Z,9.70
2023-04-13T19:17:52.916Z,9.60
2023-04-13T19:20:24.725Z,9.70
2023-04-13T19:22:52.253Z,9.60
2023-04-13T19:25:19.461Z,9.60
2023-04-13T19:27:47.245Z,9.60
2023-04-13T19:30:16.409Z,9.60
2023-04-13T19:32:46.035Z,9.70
2023-04-13T19:35:14.202Z,9.70
2023-04-13T19:37:42.231Z,9.80
2023-04-13T19:40:13.584Z,9.70
2023-04-13T19:42:43.485Z,9.80
2023-04-13T19:45:11.772Z,9.80
2023-04-13T19:47:40.662Z,9.80
2023-04-13T19:50:11.002Z,9.80
2023-04-13T19:52:39.918Z,9.80
2023-04-13T19:55:08.578Z,9.90
2023-04-13T19:57:40.287Z,9.90
2023-04-13T20:00:17.397Z,9.90
2023-04-13T20:02:47.371Z,9.90
2023-04-13T20:05:15.501Z,9.90
2023-04-13T20:07:43.220Z,10.00
2023-04-13T20:10:12.244Z,10.10
2023-04-13T20:12:39.905Z,10.20
2023-04-13T20:15:08.644Z,10.20
2023-04-13T20:17:36.221Z,10.20
2023-04-13T20:20:03.609Z,10.30
2023-04-13T20:22:30.898Z,10.40
2023-04-13T20:24:58.195Z,10.40
2023-04-13T20:27:25.781Z,10.40
2023-04-13T20:29:53.048Z,10.40
2023-04-13T20:32:20.759Z,10.40
2023-04-13T20:34:48.944Z,10.40
2023-04-13T20:37:18.486Z,10.40
2023-04-13T20:39:52.955Z,10.30
2023-04-13T20:42:22.434Z,10.30
2023-04-13T20:44:58.959Z,10.30
2023-04-13T20:47:31.486Z,10.30
2023-04-13T20:50:00.021Z,10.30
2023-04-13T20:52:29.962Z,10.30
2023-04-13T20:54:57.101Z,10.30
2023-04-13T20:57:26.823Z,10.30
2023-04-13T20:59:54.352Z,10.30
2023-04-13T21:02:21.905Z,10.30
2023-04-13T21:04:49.434Z,10.30
2023-04-13T21:07:16.881Z,10.30
2023-04-13T21:09:44.173Z,10.20
2023-04-13T21:12:11.516Z,10.20
2023-04-13T21:14:38.606Z,10.20
2023-04-13T21:17:06.099Z,10.20
2023-04-13T21:19:33.491Z,10.10
2023-04-13T21:22:02.043Z,10.00
2023-04-13T21:24:29.075Z,10.00
2023-04-13T21:26:56.959Z,10.00
2023-04-13T21:29:24.092Z,9.90
2023-04-13T21:31:51.829Z,9.90
2023-04-13T21:34:18.991Z,9.80
2023-04-13T21:39:16.963Z,9.80
2023-04-13T21:41:44.363Z,9.80
2023-04-13T21:44:28.365Z,9.80
2023-04-13T21:46:56.871Z,9.80
2023-04-13T21:49:24.048Z,9.80
2023-04-13T21:51:51.552Z,9.80
2023-04-13T21:54:18.708Z,9.80
2023-04-13T21:56:46.806Z,9.80
2023-04-13T21:59:13.823Z,9.80
2023-04-13T22:01:41.261Z,9.80
2023-04-13T22:04:09.480Z,9.80
2023-04-13T22:06:36.800Z,9.80
2023-04-13T22:09:04.043Z,9.80
2023-04-13T22:11:31.557Z,9.80
2023-04-13T22:14:00.188Z,9.80
2023-04-13T22:16:28.457Z,9.80
2023-04-13T22:18:55.755Z,9.80
2023-04-13T22:21:23.016Z,9.80
2023-04-13T22:23:50.018Z,9.80
2023-04-13T22:26:17.261Z,9.80
2023-04-13T22:28:44.227Z,9.70
2023-04-13T22:31:14.770Z,9.70
2023-04-13T22:33:41.840Z,9.80
2023-04-13T22:36:20.022Z,9.80
2023-04-13T22:38:47.786Z,9.80
2023-04-13T22:41:15.734Z,9.80
2023-04-13T22:43:42.717Z,9.80
2023-04-13T22:46:10.114Z,9.80
2023-04-13T22:48:37.242Z,9.80
2023-04-13T22:51:04.730Z,9.70
2023-04-13T22:53:32.138Z,9.70
2023-04-13T22:56:00.847Z,9.60
2023-04-13T22:58:28.450Z,9.60
2023-04-13T23:00:56.338Z,9.60
2023-04-13T23:03:23.663Z,9.60
2023-04-13T23:05:51.434Z,9.50
2023-04-13T23:08:18.387Z,9.40
2023-04-13T23:10:45.647Z,9.40
2023-04-13T23:13:12.636Z,9.40
2023-04-13T23:15:39.916Z,9.30
2023-04-13T23:18:07.065Z,9.30
2023-04-13T23:20:34.312Z,9.20
2023-04-13T23:23:01.296Z,9.10
2023-04-13T23:25:28.609Z,9.10
2023-04-13T23:27:55.671Z,9.00
2023-04-13T23:30:23.626Z,9.00
2023-04-13T23:32:51.189Z,9.00
2023-04-13T23:35:18.540Z,8.90
2023-04-13T23:37:46.233Z,8.90
2023-04-13T23:40:13.961Z,8.80
2023-04-13T23:42:41.136Z,8.80
2023-04-13T23:45:08.885Z,8.80
2023-04-13T23:47:36.023Z,8.80
2023-04-13T23:50:03.524Z,8.80
2023-04-13T23:52:30.554Z,8.80
2023-04-13T23:54:57.821Z,8.70
2023-04-13T23:57:24.862Z,8.80
2023-04-13T23:59:56.787Z,8.80
